Terminal Aerodrome Forecast
Issued by NWS

Home | Current Version | Previous Version | Graphics & Text | Print | Product List | Glossary On
Versions: 1 2 3 4 5 6 7 8 9 10 11 12 13 14 15 16
000
FTUS43 KGRB 270800 AAA
TAFATW
TAF AMD
KATW 270847Z 2709/2806 00000KT P6SM SKC
      TEMPO 2710/2713 4SM BR
     FM271500 16005KT P6SM SKC=

USA.gov is the U.S. government's official web portal to all federal, state and local government web resources and services.